sensor_id;sensor_type;location;lat;lon;timestamp;temperature;humidity
23063;DHT22;11699;43.704;10.430;2023-11-18T00:00:59;9.20;99.90
23063;DHT22;11699;43.704;10.430;2023-11-18T00:03:26;9.10;99.90
23063;DHT22;11699;43.704;10.430;2023-11-18T00:05:55;9.00;99.90
23063;DHT22;11699;43.704;10.430;2023-11-18T00:08:22;9.00;99.90
23063;DHT22;11699;43.704;10.430;2023-11-18T00:10:50;8.90;99.90
23063;DHT22;11699;43.704;10.430;2023-11-18T00:13:17;8.90;99.90
23063;DHT22;11699;43.704;10.430;2023-11-18T00:15:45;8.80;99.90
23063;DHT22;11699;43.704;10.430;2023-11-18T00:18:13;8.80;99.90
23063;DHT22;11699;43.704;10.430;2023-11-18T00:20:41;8.90;99.90
23063;DHT22;11699;43.704;10.430;2023-11-18T00:23:10;8.90;99.90
23063;DHT22;11699;43.704;10.430;2023-11-18T00:25:37;8.90;99.90
23063;DHT22;11699;43.704;10.430;2023-11-18T00:28:06;8.90;99.90
23063;DHT22;11699;43.704;10.430;2023-11-18T00:30:34;8.80;99.90
23063;DHT22;11699;43.704;10.430;2023-11-18T00:33:01;8.60;99.90
23063;DHT22;11699;43.704;10.430;2023-11-18T00:35:29;8.60;99.90
23063;DHT22;11699;43.704;10.430;2023-11-18T00:37:57;8.50;99.90
23063;DHT22;11699;43.704;10.430;2023-11-18T00:40:26;8.60;99.90
23063;DHT22;11699;43.704;10.430;2023-11-18T00:42:55;8.50;99.90
23063;DHT22;11699;43.704;10.430;2023-11-18T00:45:22;8.50;99.90
23063;DHT22;11699;43.704;10.430;2023-11-18T00:47:50;8.40;99.90
23063;DHT22;11699;43.704;10.430;2023-11-18T00:50:17;8.40;99.90
23063;DHT22;11699;43.704;10.430;2023-11-18T00:52:45;8.40;99.90
23063;DHT22;11699;43.704;10.430;2023-11-18T00:55:15;8.40;99.90
23063;DHT22;11699;43.704;10.430;2023-11-18T00:57:45;8.40;99.90
23063;DHT22;11699;43.704;10.430;2023-11-18T01:00:14;8.40;99.90
23063;DHT22;11699;43.704;10.430;2023-11-18T01:02:42;8.30;99.90
23063;DHT22;11699;43.704;10.430;2023-11-18T01:05:10;8.30;99.90
23063;DHT22;11699;43.704;10.430;2023-11-18T01:07:40;8.30;99.90
23063;DHT22;11699;43.704;10.430;2023-11-18T01:10:08;8.30;99.90
23063;DHT22;11699;43.704;10.430;2023-11-18T01:12:35;8.40;99.90
23063;DHT22;11699;43.704;10.430;2023-11-18T01:15:05;8.30;99.90
23063;DHT22;11699;43.704;10.430;2023-11-18T01:17:32;8.20;99.90
23063;DHT22;11699;43.704;10.430;2023-11-18T01:20:00;8.20;99.90
23063;DHT22;11699;43.704;10.430;2023-11-18T01:22:34;8.30;99.90
23063;DHT22;11699;43.704;10.430;2023-11-18T01:25:01;8.30;99.90
23063;DHT22;11699;43.704;10.430;2023-11-18T01:27:28;8.20;99.90
23063;DHT22;11699;43.704;10.430;2023-11-18T01:29:56;8.20;99.90
23063;DHT22;11699;43.704;10.430;2023-11-18T01:32:24;8.20;99.90
23063;DHT22;11699;43.704;10.430;2023-11-18T01:34:52;8.30;99.90
23063;DHT22;11699;43.704;10.430;2023-11-18T01:37:19;8.20;99.90
23063;DHT22;11699;43.704;10.430;2023-11-18T01:39:48;8.10;99.90
23063;DHT22;11699;43.704;10.430;2023-11-18T01:42:15;8.20;99.90
23063;DHT22;11699;43.704;10.430;2023-11-18T01:44:42;8.20;99.90
23063;DHT22;11699;43.704;10.430;2023-11-18T01:47:09;8.20;99.90
23063;DHT22;11699;43.704;10.430;2023-11-18T01:49:40;8.10;99.90
23063;DHT22;11699;43.704;10.430;2023-11-18T01:52:10;8.00;99.90
23063;DHT22;11699;43.704;10.430;2023-11-18T01:54:38;8.00;99.90
23063;DHT22;11699;43.704;10.430;2023-11-18T01:57:06;7.90;99.90
23063;DHT22;11699;43.704;10.430;2023-11-18T01:59:35;7.90;99.90
23063;DHT22;11699;43.704;10.430;2023-11-18T02:02:04;7.90;99.90
23063;DHT22;11699;43.704;10.430;2023-11-18T02:04:32;7.90;99.90
23063;DHT22;11699;43.704;10.430;2023-11-18T02:07:01;8.00;99.90
23063;DHT22;11699;43.704;10.430;2023-11-18T02:09:35;8.00;99.90
23063;DHT22;11699;43.704;10.430;2023-11-18T02:12:11;8.00;99.90
23063;DHT22;11699;43.704;10.430;2023-11-18T02:14:43;8.00;99.90
23063;DHT22;11699;43.704;10.430;2023-11-18T02:17:14;8.00;99.90
23063;DHT22;11699;43.704;10.430;2023-11-18T02:19:44;8.00;99.90
23063;DHT22;11699;43.704;10.430;2023-11-18T02:22:13;7.90;99.90
23063;DHT22;11699;43.704;10.430;2023-11-18T02:24:41;7.80;99.90
23063;DHT22;11699;43.704;10.430;2023-11-18T02:27:10;7.80;99.90
23063;DHT22;11699;43.704;10.430;2023-11-18T02:29:42;7.80;99.90
23063;DHT22;11699;43.704;10.430;2023-11-18T02:32:15;7.80;99.90
23063;DHT22;11699;43.704;10.430;2023-11-18T02:34:52;7.70;99.90
23063;DHT22;11699;43.704;10.430;2023-11-18T02:37:25;7.60;99.90
23063;DHT22;11699;43.704;10.430;2023-11-18T02:39:56;7.60;99.90
23063;DHT22;11699;43.704;10.430;2023-11-18T02:42:26;7.70;99.90
23063;DHT22;11699;43.704;10.430;2023-11-18T02:44:54;7.60;99.90
23063;DHT22;11699;43.704;10.430;2023-11-18T02:47:25;7.60;99.90
23063;DHT22;11699;43.704;10.430;2023-11-18T02:49:56;7.60;99.90
23063;DHT22;11699;43.704;10.430;2023-11-18T02:52:32;7.50;99.90
23063;DHT22;11699;43.704;10.430;2023-11-18T02:55:00;7.40;99.90
23063;DHT22;11699;43.704;10.430;2023-11-18T02:57:28;7.40;99.90
23063;DHT22;11699;43.704;10.430;2023-11-18T02:59:55;7.20;99.90
23063;DHT22;11699;43.704;10.430;2023-11-18T03:02:26;7.10;99.90
23063;DHT22;11699;43.704;10.430;2023-11-18T03:04:56;7.00;99.90
23063;DHT22;11699;43.704;10.430;2023-11-18T03:07:24;6.90;99.90
23063;DHT22;11699;43.704;10.430;2023-11-18T03:09:52;6.90;99.90
23063;DHT22;11699;43.704;10.430;2023-11-18T03:12:22;6.70;99.90
23063;DHT22;11699;43.704;10.430;2023-11-18T03:14:54;6.70;99.90
23063;DHT22;11699;43.704;10.430;2023-11-18T03:17:22;6.70;99.90
23063;DHT22;11699;43.704;10.430;2023-11-18T03:19:50;6.70;99.90
23063;DHT22;11699;43.704;10.430;2023-11-18T03:22:17;6.70;99.90
23063;DHT22;11699;43.704;10.430;2023-11-18T03:24:45;6.80;99.90
23063;DHT22;11699;43.704;10.430;2023-11-18T03:27:12;6.90;99.90
23063;DHT22;11699;43.704;10.430;2023-11-18T03:29:40;6.90;99.90
23063;DHT22;11699;43.704;10.430;2023-11-18T03:32:13;7.00;99.90
23063;DHT22;11699;43.704;10.430;2023-11-18T03:34:40;7.00;99.90
23063;DHT22;11699;43.704;10.430;2023-11-18T03:37:07;6.90;99.90
23063;DHT22;11699;43.704;10.430;2023-11-18T03:39:35;6.90;99.90
23063;DHT22;11699;43.704;10.430;2023-11-18T03:42:02;6.80;99.90
23063;DHT22;11699;43.704;10.430;2023-11-18T03:44:29;6.50;99.90
23063;DHT22;11699;43.704;10.430;2023-11-18T03:46:56;6.60;99.90
23063;DHT22;11699;43.704;10.430;2023-11-18T03:49:25;6.50;99.90
23063;DHT22;11699;43.704;10.430;2023-11-18T03:51:53;6.50;99.90
23063;DHT22;11699;43.704;10.430;2023-11-18T03:54:20;6.60;99.90
23063;DHT22;11699;43.704;10.430;2023-11-18T03:56:48;6.80;99.90
23063;DHT22;11699;43.704;10.430;2023-11-18T03:59:15;6.90;99.90
23063;DHT22;11699;43.704;10.430;2023-11-18T04:01:42;6.70;99.90
23063;DHT22;11699;43.704;10.430;2023-11-18T04:04:09;6.60;99.90
23063;DHT22;11699;43.704;10.430;2023-11-18T04:06:38;6.60;99.90
23063;DHT22;11699;43.704;10.430;2023-11-18T04:09:05;6.70;99.90
23063;DHT22;11699;43.704;10.430;2023-11-18T04:11:32;6.70;99.90
23063;DHT22;11699;43.704;10.430;2023-11-18T04:14:00;6.80;99.90
23063;DHT22;11699;43.704;10.430;2023-11-18T04:16:29;6.80;99.90
23063;DHT22;11699;43.704;10.430;2023-11-18T04:18:56;6.80;99.90
23063;DHT22;11699;43.704;10.430;2023-11-18T04:21:23;6.80;99.90
23063;DHT22;11699;43.704;10.430;2023-11-18T04:23:52;6.90;99.90
23063;DHT22;11699;43.704;10.430;2023-11-18T04:26:19;6.90;99.90
23063;DHT22;11699;43.704;10.430;2023-11-18T04:28:46;6.80;99.90
23063;DHT22;11699;43.704;10.430;2023-11-18T04:31:13;6.70;99.90
23063;DHT22;11699;43.704;10.430;2023-11-18T04:33:41;6.70;99.90
23063;DHT22;11699;43.704;10.430;2023-11-18T04:36:10;6.70;99.90
23063;DHT22;11699;43.704;10.430;2023-11-18T04:38:39;6.60;99.90
23063;DHT22;11699;43.704;10.430;2023-11-18T04:41:08;6.70;99.90
23063;DHT22;11699;43.704;10.430;2023-11-18T04:43:35;6.80;99.90
23063;DHT22;11699;43.704;10.430;2023-11-18T04:46:03;6.90;99.90
23063;DHT22;11699;43.704;10.430;2023-11-18T04:48:31;6.80;99.90
23063;DHT22;11699;43.704;10.430;2023-11-18T04:50:58;6.70;99.90
23063;DHT22;11699;43.704;10.430;2023-11-18T04:53:26;6.50;99.90
23063;DHT22;11699;43.704;10.430;2023-11-18T04:55:53;6.50;99.90
23063;DHT22;11699;43.704;10.430;2023-11-18T04:58:22;6.50;99.90
23063;DHT22;11699;43.704;10.430;2023-11-18T05:00:49;6.50;99.90
23063;DHT22;11699;43.704;10.430;2023-11-18T05:03:17;6.50;99.90
23063;DHT22;11699;43.704;10.430;2023-11-18T05:05:44;6.40;99.90
23063;DHT22;11699;43.704;10.430;2023-11-18T05:08:18;6.40;99.90
23063;DHT22;11699;43.704;10.430;2023-11-18T05:10:47;6.50;99.90
23063;DHT22;11699;43.704;10.430;2023-11-18T05:13:14;6.50;99.90
23063;DHT22;11699;43.704;10.430;2023-11-18T05:15:44;6.50;99.90
23063;DHT22;11699;43.704;10.430;2023-11-18T05:18:12;6.60;99.90
23063;DHT22;11699;43.704;10.430;2023-11-18T05:20:40;6.50;99.90
23063;DHT22;11699;43.704;10.430;2023-11-18T05:23:07;6.50;99.90
23063;DHT22;11699;43.704;10.430;2023-11-18T05:25:36;6.50;99.90
23063;DHT22;11699;43.704;10.430;2023-11-18T05:28:03;6.40;99.90
23063;DHT22;11699;43.704;10.430;2023-11-18T05:30:34;6.40;99.90
23063;DHT22;11699;43.704;10.430;2023-11-18T05:33:04;6.50;99.90
23063;DHT22;11699;43.704;10.430;2023-11-18T05:35:31;6.40;99.90
23063;DHT22;11699;43.704;10.430;2023-11-18T05:37:58;6.60;99.90
23063;DHT22;11699;43.704;10.430;2023-11-18T05:40:26;6.60;99.90
23063;DHT22;11699;43.704;10.430;2023-11-18T05:42:54;6.60;99.90
23063;DHT22;11699;43.704;10.430;2023-11-18T05:45:23;6.60;99.90
23063;DHT22;11699;43.704;10.430;2023-11-18T05:47:58;6.70;99.90
23063;DHT22;11699;43.704;10.430;2023-11-18T05:50:26;6.90;99.90
23063;DHT22;11699;43.704;10.430;2023-11-18T05:52:54;6.90;99.90
23063;DHT22;11699;43.704;10.430;2023-11-18T05:55:21;6.80;99.90
23063;DHT22;11699;43.704;10.430;2023-11-18T05:57:49;6.80;99.90
23063;DHT22;11699;43.704;10.430;2023-11-18T06:00:16;6.60;99.90
23063;DHT22;11699;43.704;10.430;2023-11-18T06:02:45;6.50;99.90
23063;DHT22;11699;43.704;10.430;2023-11-18T06:05:12;6.40;99.90
23063;DHT22;11699;43.704;10.430;2023-11-18T06:07:41;6.40;99.90
23063;DHT22;11699;43.704;10.430;2023-11-18T06:10:10;6.40;99.90
23063;DHT22;11699;43.704;10.430;2023-11-18T06:12:38;6.50;99.90
23063;DHT22;11699;43.704;10.430;2023-11-18T06:15:07;6.30;99.90
23063;DHT22;11699;43.704;10.430;2023-11-18T06:17:40;6.30;99.90
23063;DHT22;11699;43.704;10.430;2023-11-18T06:20:09;6.10;99.90
23063;DHT22;11699;43.704;10.430;2023-11-18T06:22:36;6.10;99.90
23063;DHT22;11699;43.704;10.430;2023-11-18T06:25:05;6.20;99.90
23063;DHT22;11699;43.704;10.430;2023-11-18T06:27:33;6.30;99.90
23063;DHT22;11699;43.704;10.430;2023-11-18T06:30:00;6.30;99.90
23063;DHT22;11699;43.704;10.430;2023-11-18T06:32:27;6.20;99.90
23063;DHT22;11699;43.704;10.430;2023-11-18T06:34:56;6.20;99.90
23063;DHT22;11699;43.704;10.430;2023-11-18T06:37:24;6.20;99.90
23063;DHT22;11699;43.704;10.430;2023-11-18T06:39:51;6.10;99.90
23063;DHT22;11699;43.704;10.430;2023-11-18T06:42:20;6.00;99.90
23063;DHT22;11699;43.704;10.430;2023-11-18T06:44:49;6.10;99.90
23063;DHT22;11699;43.704;10.430;2023-11-18T06:47:16;6.10;99.90
23063;DHT22;11699;43.704;10.430;2023-11-18T06:49:45;6.20;99.90
23063;DHT22;11699;43.704;10.430;2023-11-18T06:52:13;6.10;99.90
23063;DHT22;11699;43.704;10.430;2023-11-18T06:54:41;6.10;99.90
23063;DHT22;11699;43.704;10.430;2023-11-18T06:57:08;6.10;99.90
23063;DHT22;11699;43.704;10.430;2023-11-18T06:59:37;6.00;99.90
23063;DHT22;11699;43.704;10.430;2023-11-18T07:02:05;6.10;99.90
23063;DHT22;11699;43.704;10.430;2023-11-18T07:04:33;6.00;99.90
23063;DHT22;11699;43.704;10.430;2023-11-18T07:07:01;6.00;99.90
23063;DHT22;11699;43.704;10.430;2023-11-18T07:09:28;6.00;99.90
23063;DHT22;11699;43.704;10.430;2023-11-18T07:12:01;6.10;99.90
23063;DHT22;11699;43.704;10.430;2023-11-18T07:14:29;6.30;99.90
23063;DHT22;11699;43.704;10.430;2023-11-18T07:16:58;6.40;99.90
23063;DHT22;11699;43.704;10.430;2023-11-18T07:19:25;6.50;99.90
23063;DHT22;11699;43.704;10.430;2023-11-18T07:21:53;6.60;99.90
23063;DHT22;11699;43.704;10.430;2023-11-18T07:24:20;6.70;99.90
23063;DHT22;11699;43.704;10.430;2023-11-18T07:26:48;6.90;99.90
23063;DHT22;11699;43.704;10.430;2023-11-18T07:29:16;7.00;99.90
23063;DHT22;11699;43.704;10.430;2023-11-18T07:31:43;7.10;99.90
23063;DHT22;11699;43.704;10.430;2023-11-18T07:34:12;7.20;99.90
23063;DHT22;11699;43.704;10.430;2023-11-18T07:36:40;7.40;99.90
23063;DHT22;11699;43.704;10.430;2023-11-18T07:39:11;7.60;99.90
23063;DHT22;11699;43.704;10.430;2023-11-18T07:41:41;7.70;99.90
23063;DHT22;11699;43.704;10.430;2023-11-18T07:44:09;7.90;99.90
23063;DHT22;11699;43.704;10.430;2023-11-18T07:46:38;8.10;99.90
23063;DHT22;11699;43.704;10.430;2023-11-18T07:49:08;8.60;99.90
23063;DHT22;11699;43.704;10.430;2023-11-18T07:51:37;9.30;99.90
23063;DHT22;11699;43.704;10.430;2023-11-18T07:54:06;9.90;99.90
23063;DHT22;11699;43.704;10.430;2023-11-18T07:56:33;10.40;99.90
23063;DHT22;11699;43.704;10.430;2023-11-18T07:59:02;10.40;99.90
23063;DHT22;11699;43.704;10.430;2023-11-18T08:01:30;10.90;99.90
23063;DHT22;11699;43.704;10.430;2023-11-18T08:03:59;11.20;99.90
23063;DHT22;11699;43.704;10.430;2023-11-18T08:06:26;11.50;99.90
23063;DHT22;11699;43.704;10.430;2023-11-18T08:08:55;12.00;99.90
23063;DHT22;11699;43.704;10.430;2023-11-18T08:11:23;12.20;99.90
23063;DHT22;11699;43.704;10.430;2023-11-18T08:13:51;12.00;99.90
23063;DHT22;11699;43.704;10.430;2023-11-18T08:16:19;11.60;99.90
23063;DHT22;11699;43.704;10.430;2023-11-18T08:18:48;11.30;99.90
23063;DHT22;11699;43.704;10.430;2023-11-18T08:21:15;11.00;99.90
23063;DHT22;11699;43.704;10.430;2023-11-18T08:23:42;10.90;99.90
23063;DHT22;11699;43.704;10.430;2023-11-18T08:26:12;10.80;99.90
23063;DHT22;11699;43.704;10.430;2023-11-18T08:28:40;11.00;99.90
23063;DHT22;11699;43.704;10.430;2023-11-18T08:31:07;11.00;99.90
23063;DHT22;11699;43.704;10.430;2023-11-18T08:33:35;11.20;99.90
23063;DHT22;11699;43.704;10.430;2023-11-18T08:36:02;11.50;99.90
23063;DHT22;11699;43.704;10.430;2023-11-18T08:38:29;11.50;99.90
23063;DHT22;11699;43.704;10.430;2023-11-18T08:40:56;11.60;99.90
23063;DHT22;11699;43.704;10.430;2023-11-18T08:43:25;11.60;99.90
23063;DHT22;11699;43.704;10.430;2023-11-18T08:45:54;11.90;99.90
23063;DHT22;11699;43.704;10.430;2023-11-18T08:48:22;12.10;99.90
23063;DHT22;11699;43.704;10.430;2023-11-18T08:50:49;12.30;99.90
23063;DHT22;11699;43.704;10.430;2023-11-18T08:53:17;12.40;99.90
23063;DHT22;11699;43.704;10.430;2023-11-18T08:55:44;12.20;99.90
23063;DHT22;11699;43.704;10.430;2023-11-18T08:58:17;12.30;99.90
23063;DHT22;11699;43.704;10.430;2023-11-18T09:00:48;12.30;99.90
23063;DHT22;11699;43.704;10.430;2023-11-18T09:03:20;12.40;99.90
23063;DHT22;11699;43.704;10.430;2023-11-18T09:05:56;12.50;99.90
23063;DHT22;11699;43.704;10.430;2023-11-18T09:08:25;12.70;99.90
23063;DHT22;11699;43.704;10.430;2023-11-18T09:10:53;12.80;99.90
23063;DHT22;11699;43.704;10.430;2023-11-18T09:13:22;12.80;99.90
23063;DHT22;11699;43.704;10.430;2023-11-18T09:15:52;13.00;99.90
23063;DHT22;11699;43.704;10.430;2023-11-18T09:18:22;13.10;99.90
23063;DHT22;11699;43.704;10.430;2023-11-18T09:20:50;13.20;99.90
23063;DHT22;11699;43.704;10.430;2023-11-18T09:23:18;13.10;99.90
23063;DHT22;11699;43.704;10.430;2023-11-18T09:25:46;13.10;99.90
23063;DHT22;11699;43.704;10.430;2023-11-18T09:28:14;13.00;99.90
23063;DHT22;11699;43.704;10.430;2023-11-18T09:30:42;13.00;99.90
23063;DHT22;11699;43.704;10.430;2023-11-18T09:33:18;13.30;99.90
23063;DHT22;11699;43.704;10.430;2023-11-18T09:35:52;13.50;99.90
23063;DHT22;11699;43.704;10.430;2023-11-18T09:38:28;13.60;99.90
23063;DHT22;11699;43.704;10.430;2023-11-18T09:40:56;13.60;99.90
23063;DHT22;11699;43.704;10.430;2023-11-18T09:43:28;13.80;99.90
23063;DHT22;11699;43.704;10.430;2023-11-18T09:46:03;13.90;99.90
23063;DHT22;11699;43.704;10.430;2023-11-18T09:48:35;14.00;99.90
23063;DHT22;11699;43.704;10.430;2023-11-18T09:51:08;14.40;99.90
23063;DHT22;11699;43.704;10.430;2023-11-18T09:53:38;14.90;99.90
23063;DHT22;11699;43.704;10.430;2023-11-18T09:56:08;15.30;99.90
23063;DHT22;11699;43.704;10.430;2023-11-18T09:58:48;15.60;99.90
23063;DHT22;11699;43.704;10.430;2023-11-18T10:01:20;16.00;99.90
23063;DHT22;11699;43.704;10.430;2023-11-18T10:03:50;16.20;99.90
23063;DHT22;11699;43.704;10.430;2023-11-18T10:06:18;16.00;99.90
23063;DHT22;11699;43.704;10.430;2023-11-18T10:08:47;16.10;99.90
23063;DHT22;11699;43.704;10.430;2023-11-18T10:11:19;16.20;99.90
23063;DHT22;11699;43.704;10.430;2023-11-18T10:13:48;16.00;99.90
23063;DHT22;11699;43.704;10.430;2023-11-18T10:16:15;15.70;99.90
23063;DHT22;11699;43.704;10.430;2023-11-18T10:18:45;15.50;99.90
23063;DHT22;11699;43.704;10.430;2023-11-18T10:21:16;15.40;99.90
23063;DHT22;11699;43.704;10.430;2023-11-18T10:24:03;15.60;99.90
23063;DHT22;11699;43.704;10.430;2023-11-18T10:26:31;15.50;99.90
23063;DHT22;11699;43.704;10.430;2023-11-18T10:29:03;15.50;99.90
23063;DHT22;11699;43.704;10.430;2023-11-18T10:31:33;15.50;99.90
23063;DHT22;11699;43.704;10.430;2023-11-18T10:34:02;15.70;99.90
23063;DHT22;11699;43.704;10.430;2023-11-18T10:36:31;15.70;99.90
23063;DHT22;11699;43.704;10.430;2023-11-18T10:39:01;15.70;99.90
23063;DHT22;11699;43.704;10.430;2023-11-18T10:41:40;15.60;99.90
23063;DHT22;11699;43.704;10.430;2023-11-18T10:44:09;15.60;99.90
23063;DHT22;11699;43.704;10.430;2023-11-18T10:46:41;15.60;99.90
23063;DHT22;11699;43.704;10.430;2023-11-18T10:49:08;15.50;99.90
23063;DHT22;11699;43.704;10.430;2023-11-18T10:51:37;15.60;99.90
23063;DHT22;11699;43.704;10.430;2023-11-18T10:54:06;15.60;99.90
23063;DHT22;11699;43.704;10.430;2023-11-18T10:56:46;15.60;99.90
23063;DHT22;11699;43.704;10.430;2023-11-18T10:59:14;15.50;99.90
23063;DHT22;11699;43.704;10.430;2023-11-18T11:01:42;15.40;99.90
23063;DHT22;11699;43.704;10.430;2023-11-18T11:04:11;15.30;99.90
23063;DHT22;11699;43.704;10.430;2023-11-18T11:06:44;15.10;99.90
23063;DHT22;11699;43.704;10.430;2023-11-18T11:09:18;15.10;99.90
23063;DHT22;11699;43.704;10.430;2023-11-18T11:11:54;15.20;99.90
23063;DHT22;11699;43.704;10.430;2023-11-18T11:14:23;15.10;99.90
23063;DHT22;11699;43.704;10.430;2023-11-18T11:17:05;15.10;99.90
23063;DHT22;11699;43.704;10.430;2023-11-18T11:19:49;15.10;99.90
23063;DHT22;11699;43.704;10.430;2023-11-18T11:22:28;15.20;99.90
23063;DHT22;11699;43.704;10.430;2023-11-18T11:25:06;15.20;99.90
23063;DHT22;11699;43.704;10.430;2023-11-18T11:27:41;15.20;99.90
23063;DHT22;11699;43.704;10.430;2023-11-18T11:30:21;15.20;99.90
23063;DHT22;11699;43.704;10.430;2023-11-18T11:32:51;15.20;99.90
23063;DHT22;11699;43.704;10.430;2023-11-18T11:35:23;15.10;99.90
23063;DHT22;11699;43.704;10.430;2023-11-18T11:37:52;15.10;99.90
23063;DHT22;11699;43.704;10.430;2023-11-18T11:40:24;15.10;99.90
23063;DHT22;11699;43.704;10.430;2023-11-18T11:42:56;15.20;99.90
23063;DHT22;11699;43.704;10.430;2023-11-18T11:45:27;15.30;99.90
23063;DHT22;11699;43.704;10.430;2023-11-18T11:47:58;15.20;99.90
23063;DHT22;11699;43.704;10.430;2023-11-18T11:50:50;15.30;99.90
23063;DHT22;11699;43.704;10.430;2023-11-18T11:53:22;15.30;99.90
23063;DHT22;11699;43.704;10.430;2023-11-18T11:55:53;15.30;99.90
23063;DHT22;11699;43.704;10.430;2023-11-18T11:58:31;15.30;99.90
23063;DHT22;11699;43.704;10.430;2023-11-18T12:01:00;15.30;99.90
23063;DHT22;11699;43.704;10.430;2023-11-18T12:03:38;15.40;99.90
23063;DHT22;11699;43.704;10.430;2023-11-18T12:06:06;15.30;99.90
23063;DHT22;11699;43.704;10.430;2023-11-18T12:08:36;15.30;99.90
23063;DHT22;11699;43.704;10.430;2023-11-18T12:11:04;15.30;99.90
23063;DHT22;11699;43.704;10.430;2023-11-18T12:13:38;15.30;99.90
23063;DHT22;11699;43.704;10.430;2023-11-18T12:16:10;15.40;99.90
23063;DHT22;11699;43.704;10.430;2023-11-18T12:18:42;15.40;99.90
23063;DHT22;11699;43.704;10.430;2023-11-18T12:21:09;15.40;99.90
23063;DHT22;11699;43.704;10.430;2023-11-18T12:24:18;15.30;99.90
23063;DHT22;11699;43.704;10.430;2023-11-18T12:26:46;15.20;99.90
23063;DHT22;11699;43.704;10.430;2023-11-18T12:29:31;15.20;99.90
23063;DHT22;11699;43.704;10.430;2023-11-18T12:32:00;15.30;99.90
23063;DHT22;11699;43.704;10.430;2023-11-18T12:34:50;15.30;99.90
23063;DHT22;11699;43.704;10.430;2023-11-18T12:37:56;15.30;99.90
23063;DHT22;11699;43.704;10.430;2023-11-18T12:40:50;15.30;99.90
23063;DHT22;11699;43.704;10.430;2023-11-18T12:43:40;15.40;99.90
23063;DHT22;11699;43.704;10.430;2023-11-18T12:46:32;15.40;99.90
23063;DHT22;11699;43.704;10.430;2023-11-18T12:49:10;15.50;99.90
23063;DHT22;11699;43.704;10.430;2023-11-18T12:51:42;15.30;99.90
23063;DHT22;11699;43.704;10.430;2023-11-18T12:54:11;15.40;99.90
23063;DHT22;11699;43.704;10.430;2023-11-18T12:56:40;15.50;99.90
23063;DHT22;11699;43.704;10.430;2023-11-18T12:59:10;15.60;99.90
23063;DHT22;11699;43.704;10.430;2023-11-18T13:01:39;15.60;99.90
23063;DHT22;11699;43.704;10.430;2023-11-18T13:04:07;15.60;99.90
23063;DHT22;11699;43.704;10.430;2023-11-18T13:06:35;15.70;99.90
23063;DHT22;11699;43.704;10.430;2023-11-18T13:09:03;15.70;99.90
23063;DHT22;11699;43.704;10.430;2023-11-18T13:11:35;15.60;99.90
23063;DHT22;11699;43.704;10.430;2023-11-18T13:14:06;15.60;99.90
23063;DHT22;11699;43.704;10.430;2023-11-18T13:16:34;15.60;99.90
23063;DHT22;11699;43.704;10.430;2023-11-18T13:19:02;15.50;99.90
23063;DHT22;11699;43.704;10.430;2023-11-18T13:21:34;15.60;99.90
23063;DHT22;11699;43.704;10.430;2023-11-18T13:24:02;15.50;99.90
23063;DHT22;11699;43.704;10.430;2023-11-18T13:26:31;15.40;99.90
23063;DHT22;11699;43.704;10.430;2023-11-18T13:28:59;15.40;99.90
23063;DHT22;11699;43.704;10.430;2023-11-18T13:31:30;15.40;99.90
23063;DHT22;11699;43.704;10.430;2023-11-18T13:33:57;15.30;99.90
23063;DHT22;11699;43.704;10.430;2023-11-18T13:36:26;15.30;99.90
23063;DHT22;11699;43.704;10.430;2023-11-18T13:38:53;15.30;99.90
23063;DHT22;11699;43.704;10.430;2023-11-18T13:41:30;15.30;99.90
23063;DHT22;11699;43.704;10.430;2023-11-18T13:43:58;15.30;99.90
23063;DHT22;11699;43.704;10.430;2023-11-18T13:46:26;15.30;99.90
23063;DHT22;11699;43.704;10.430;2023-11-18T13:48:54;15.30;99.90
23063;DHT22;11699;43.704;10.430;2023-11-18T13:51:22;15.30;99.90
23063;DHT22;11699;43.704;10.430;2023-11-18T13:53:50;15.40;99.90
23063;DHT22;11699;43.704;10.430;2023-11-18T13:56:19;15.50;99.90
23063;DHT22;11699;43.704;10.430;2023-11-18T13:58:48;15.60;99.90
23063;DHT22;11699;43.704;10.430;2023-11-18T14:01:15;15.70;99.90
23063;DHT22;11699;43.704;10.430;2023-11-18T14:03:43;15.70;99.90
23063;DHT22;11699;43.704;10.430;2023-11-18T14:06:15;15.70;99.90
23063;DHT22;11699;43.704;10.430;2023-11-18T14:08:43;15.70;99.90
23063;DHT22;11699;43.704;10.430;2023-11-18T14:11:10;15.80;99.90
23063;DHT22;11699;43.704;10.430;2023-11-18T14:13:38;15.80;99.90
23063;DHT22;11699;43.704;10.430;2023-11-18T14:16:05;15.90;99.90
23063;DHT22;11699;43.704;10.430;2023-11-18T14:18:35;15.90;99.90
23063;DHT22;11699;43.704;10.430;2023-11-18T14:21:03;16.00;99.90
23063;DHT22;11699;43.704;10.430;2023-11-18T14:23:33;16.00;99.90
23063;DHT22;11699;43.704;10.430;2023-11-18T14:26:00;16.00;99.90
23063;DHT22;11699;43.704;10.430;2023-11-18T14:28:28;16.00;99.90
23063;DHT22;11699;43.704;10.430;2023-11-18T14:30:55;16.00;99.90
23063;DHT22;11699;43.704;10.430;2023-11-18T14:33:23;16.00;99.90
23063;DHT22;11699;43.704;10.430;2023-11-18T14:35:51;16.10;99.90
23063;DHT22;11699;43.704;10.430;2023-11-18T14:38:19;16.10;99.90
23063;DHT22;11699;43.704;10.430;2023-11-18T14:40:48;16.10;99.90
23063;DHT22;11699;43.704;10.430;2023-11-18T14:43:16;16.20;99.90
23063;DHT22;11699;43.704;10.430;2023-11-18T14:45:44;16.30;99.90
23063;DHT22;11699;43.704;10.430;2023-11-18T14:48:11;16.40;99.90
23063;DHT22;11699;43.704;10.430;2023-11-18T14:50:39;16.40;99.90
23063;DHT22;11699;43.704;10.430;2023-11-18T14:53:06;16.40;99.90
23063;DHT22;11699;43.704;10.430;2023-11-18T14:55:33;16.30;99.90
23063;DHT22;11699;43.704;10.430;2023-11-18T14:58:04;16.20;99.90
23063;DHT22;11699;43.704;10.430;2023-11-18T15:00:32;16.00;99.90
23063;DHT22;11699;43.704;10.430;2023-11-18T15:03:00;15.80;99.90
23063;DHT22;11699;43.704;10.430;2023-11-18T15:05:27;15.60;99.90
23063;DHT22;11699;43.704;10.430;2023-11-18T15:07:55;15.50;99.90
23063;DHT22;11699;43.704;10.430;2023-11-18T15:10:24;15.30;99.90
23063;DHT22;11699;43.704;10.430;2023-11-18T15:12:52;15.30;99.90
23063;DHT22;11699;43.704;10.430;2023-11-18T15:15:22;15.10;99.90
23063;DHT22;11699;43.704;10.430;2023-11-18T15:17:57;15.10;99.90
23063;DHT22;11699;43.704;10.430;2023-11-18T15:20:25;14.90;99.90
23063;DHT22;11699;43.704;10.430;2023-11-18T15:22:52;14.80;99.90
23063;DHT22;11699;43.704;10.430;2023-11-18T15:25:20;14.70;99.90
23063;DHT22;11699;43.704;10.430;2023-11-18T15:27:47;14.50;99.90
23063;DHT22;11699;43.704;10.430;2023-11-18T15:30:16;14.40;99.90
23063;DHT22;11699;43.704;10.430;2023-11-18T15:32:45;14.30;99.90
23063;DHT22;11699;43.704;10.430;2023-11-18T15:35:13;14.20;99.90
23063;DHT22;11699;43.704;10.430;2023-11-18T15:37:43;14.20;99.90